sensor_id;sensor_type;location;lat;lon;timestamp;P1;durP1;ratioP1;P2;durP2;ratioP2
70153;SDS011;57519;51.494;-2.626;2023-04-10T00:01:13;31.73;;;16.13;;
70153;SDS011;57519;51.494;-2.626;2023-04-10T00:03:39;34.10;;;15.57;;
70153;SDS011;57519;51.494;-2.626;2023-04-10T00:06:05;34.13;;;15.63;;
70153;SDS011;57519;51.494;-2.626;2023-04-10T00:08:32;38.83;;;16.25;;
70153;SDS011;57519;51.494;-2.626;2023-04-10T00:10:57;29.20;;;14.47;;
70153;SDS011;57519;51.494;-2.626;2023-04-10T00:13:25;25.30;;;14.13;;
70153;SDS011;57519;51.494;-2.626;2023-04-10T00:15:50;23.90;;;13.90;;
70153;SDS011;57519;51.494;-2.626;2023-04-10T00:18:24;29.77;;;13.80;;
70153;SDS011;57519;51.494;-2.626;2023-04-10T00:20:53;27.27;;;13.27;;
70153;SDS011;57519;51.494;-2.626;2023-04-10T00:23:22;23.83;;;13.63;;
70153;SDS011;57519;51.494;-2.626;2023-04-10T00:25:51;23.30;;;12.85;;
70153;SDS011;57519;51.494;-2.626;2023-04-10T00:28:19;28.20;;;13.03;;
70153;SDS011;57519;51.494;-2.626;2023-04-10T00:30:48;27.35;;;13.40;;
70153;SDS011;57519;51.494;-2.626;2023-04-10T00:33:14;22.63;;;12.90;;
70153;SDS011;57519;51.494;-2.626;2023-04-10T00:35:39;24.67;;;12.17;;
70153;SDS011;57519;51.494;-2.626;2023-04-10T00:38:10;23.98;;;11.60;;
70153;SDS011;57519;51.494;-2.626;2023-04-10T00:40:38;20.20;;;10.63;;
70153;SDS011;57519;51.494;-2.626;2023-04-10T00:43:05;19.00;;;10.60;;
70153;SDS011;57519;51.494;-2.626;2023-04-10T00:45:31;13.97;;;8.87;;
70153;SDS011;57519;51.494;-2.626;2023-04-10T00:47:57;12.70;;;7.97;;
70153;SDS011;57519;51.494;-2.626;2023-04-10T00:50:23;15.77;;;7.60;;
70153;SDS011;57519;51.494;-2.626;2023-04-10T00:52:49;13.25;;;7.22;;
70153;SDS011;57519;51.494;-2.626;2023-04-10T00:55:15;11.50;;;6.60;;
70153;SDS011;57519;51.494;-2.626;2023-04-10T00:57:43;13.20;;;6.50;;
70153;SDS011;57519;51.494;-2.626;2023-04-10T01:00:14;9.18;;;5.60;;
70153;SDS011;57519;51.494;-2.626;2023-04-10T01:02:40;12.93;;;6.45;;
70153;SDS011;57519;51.494;-2.626;2023-04-10T01:05:06;12.23;;;6.17;;
70153;SDS011;57519;51.494;-2.626;2023-04-10T01:10:42;9.18;;;5.90;;
70153;SDS011;57519;51.494;-2.626;2023-04-10T01:13:24;9.03;;;5.93;;
70153;SDS011;57519;51.494;-2.626;2023-04-10T01:18:52;11.88;;;6.72;;
70153;SDS011;57519;51.494;-2.626;2023-04-10T01:21:25;10.10;;;5.65;;
70153;SDS011;57519;51.494;-2.626;2023-04-10T01:30:01;9.73;;;5.38;;
70153;SDS011;57519;51.494;-2.626;2023-04-10T01:32:28;9.02;;;5.03;;
70153;SDS011;57519;51.494;-2.626;2023-04-10T01:34:58;9.38;;;5.65;;
70153;SDS011;57519;51.494;-2.626;2023-04-10T01:37:30;7.63;;;4.95;;
70153;SDS011;57519;51.494;-2.626;2023-04-10T01:40:03;7.17;;;4.77;;
70153;SDS011;57519;51.494;-2.626;2023-04-10T01:42:34;7.93;;;5.20;;
70153;SDS011;57519;51.494;-2.626;2023-04-10T01:45:05;7.15;;;4.53;;
70153;SDS011;57519;51.494;-2.626;2023-04-10T01:47:33;8.07;;;5.25;;
70153;SDS011;57519;51.494;-2.626;2023-04-10T01:49:59;7.20;;;4.97;;
70153;SDS011;57519;51.494;-2.626;2023-04-10T01:52:26;7.20;;;5.00;;
70153;SDS011;57519;51.494;-2.626;2023-04-10T01:54:54;7.07;;;4.50;;
70153;SDS011;57519;51.494;-2.626;2023-04-10T01:57:20;7.20;;;4.65;;
70153;SDS011;57519;51.494;-2.626;2023-04-10T01:59:48;8.30;;;4.53;;
70153;SDS011;57519;51.494;-2.626;2023-04-10T02:02:14;7.03;;;4.78;;
70153;SDS011;57519;51.494;-2.626;2023-04-10T02:04:40;8.55;;;5.20;;
70153;SDS011;57519;51.494;-2.626;2023-04-10T02:07:13;8.25;;;4.55;;
70153;SDS011;57519;51.494;-2.626;2023-04-10T02:09:46;6.93;;;4.90;;
70153;SDS011;57519;51.494;-2.626;2023-04-10T02:12:22;6.63;;;4.50;;
70153;SDS011;57519;51.494;-2.626;2023-04-10T02:14:56;10.02;;;4.90;;
70153;SDS011;57519;51.494;-2.626;2023-04-10T02:17:26;8.13;;;4.80;;
70153;SDS011;57519;51.494;-2.626;2023-04-10T02:19:55;6.63;;;4.28;;
70153;SDS011;57519;51.494;-2.626;2023-04-10T02:22:25;10.02;;;5.68;;
70153;SDS011;57519;51.494;-2.626;2023-04-10T02:24:51;11.77;;;5.53;;
70153;SDS011;57519;51.494;-2.626;2023-04-10T02:27:28;9.02;;;4.70;;
70153;SDS011;57519;51.494;-2.626;2023-04-10T02:30:02;9.57;;;5.63;;
70153;SDS011;57519;51.494;-2.626;2023-04-10T02:32:30;7.63;;;5.50;;
70153;SDS011;57519;51.494;-2.626;2023-04-10T02:34:57;10.45;;;6.32;;
70153;SDS011;57519;51.494;-2.626;2023-04-10T02:37:24;7.43;;;4.97;;
70153;SDS011;57519;51.494;-2.626;2023-04-10T02:39:51;11.65;;;6.28;;
70153;SDS011;57519;51.494;-2.626;2023-04-10T02:42:19;6.53;;;5.47;;
70153;SDS011;57519;51.494;-2.626;2023-04-10T02:44:47;10.07;;;4.83;;
70153;SDS011;57519;51.494;-2.626;2023-04-10T02:47:12;7.38;;;4.25;;
70153;SDS011;57519;51.494;-2.626;2023-04-10T02:49:38;8.55;;;5.40;;
70153;SDS011;57519;51.494;-2.626;2023-04-10T02:52:04;9.67;;;5.07;;
70153;SDS011;57519;51.494;-2.626;2023-04-10T02:54:31;9.98;;;5.28;;
70153;SDS011;57519;51.494;-2.626;2023-04-10T02:56:58;7.47;;;4.70;;
70153;SDS011;57519;51.494;-2.626;2023-04-10T02:59:24;7.35;;;4.72;;
70153;SDS011;57519;51.494;-2.626;2023-04-10T03:01:50;7.68;;;5.13;;
70153;SDS011;57519;51.494;-2.626;2023-04-10T03:04:16;5.77;;;4.27;;
70153;SDS011;57519;51.494;-2.626;2023-04-10T03:06:43;8.25;;;5.10;;
70153;SDS011;57519;51.494;-2.626;2023-04-10T03:09:11;10.50;;;5.18;;
70153;SDS011;57519;51.494;-2.626;2023-04-10T03:11:37;8.35;;;4.30;;
70153;SDS011;57519;51.494;-2.626;2023-04-10T03:14:04;7.05;;;4.80;;
70153;SDS011;57519;51.494;-2.626;2023-04-10T03:16:29;6.03;;;4.47;;
70153;SDS011;57519;51.494;-2.626;2023-04-10T03:18:56;9.65;;;5.05;;
70153;SDS011;57519;51.494;-2.626;2023-04-10T03:21:25;6.10;;;4.00;;
70153;SDS011;57519;51.494;-2.626;2023-04-10T03:23:52;8.20;;;4.22;;
70153;SDS011;57519;51.494;-2.626;2023-04-10T03:26:18;9.20;;;4.55;;
70153;SDS011;57519;51.494;-2.626;2023-04-10T03:28:44;7.22;;;3.92;;
70153;SDS011;57519;51.494;-2.626;2023-04-10T03:31:10;10.30;;;5.50;;
70153;SDS011;57519;51.494;-2.626;2023-04-10T03:33:36;5.65;;;4.28;;
70153;SDS011;57519;51.494;-2.626;2023-04-10T03:36:02;8.40;;;4.40;;
70153;SDS011;57519;51.494;-2.626;2023-04-10T03:38:29;6.95;;;3.97;;
70153;SDS011;57519;51.494;-2.626;2023-04-10T03:40:55;6.45;;;4.57;;
70153;SDS011;57519;51.494;-2.626;2023-04-10T03:43:24;11.63;;;5.13;;
70153;SDS011;57519;51.494;-2.626;2023-04-10T03:45:49;7.70;;;4.97;;
70153;SDS011;57519;51.494;-2.626;2023-04-10T03:48:15;5.80;;;3.80;;
70153;SDS011;57519;51.494;-2.626;2023-04-10T03:50:41;7.95;;;5.07;;
70153;SDS011;57519;51.494;-2.626;2023-04-10T03:53:09;10.33;;;5.00;;
70153;SDS011;57519;51.494;-2.626;2023-04-10T03:55:36;7.40;;;4.38;;
70153;SDS011;57519;51.494;-2.626;2023-04-10T03:58:04;9.95;;;4.78;;
70153;SDS011;57519;51.494;-2.626;2023-04-10T04:00:34;6.25;;;4.80;;
70153;SDS011;57519;51.494;-2.626;2023-04-10T04:03:03;5.85;;;4.28;;
70153;SDS011;57519;51.494;-2.626;2023-04-10T04:05:33;7.63;;;4.93;;
70153;SDS011;57519;51.494;-2.626;2023-04-10T04:07:59;8.13;;;5.03;;
70153;SDS011;57519;51.494;-2.626;2023-04-10T04:10:25;6.67;;;4.40;;
70153;SDS011;57519;51.494;-2.626;2023-04-10T04:12:50;5.93;;;4.80;;
70153;SDS011;57519;51.494;-2.626;2023-04-10T04:15:20;7.32;;;4.32;;
70153;SDS011;57519;51.494;-2.626;2023-04-10T04:17:48;5.80;;;4.00;;
70153;SDS011;57519;51.494;-2.626;2023-04-10T04:20:16;5.97;;;4.57;;
70153;SDS011;57519;51.494;-2.626;2023-04-10T04:22:42;6.43;;;4.93;;
70153;SDS011;57519;51.494;-2.626;2023-04-10T04:25:08;9.50;;;5.37;;
70153;SDS011;57519;51.494;-2.626;2023-04-10T04:27:35;5.45;;;4.30;;
70153;SDS011;57519;51.494;-2.626;2023-04-10T04:30:02;13.48;;;5.88;;
70153;SDS011;57519;51.494;-2.626;2023-04-10T04:32:28;6.25;;;4.65;;
70153;SDS011;57519;51.494;-2.626;2023-04-10T04:34:54;5.90;;;4.45;;
70153;SDS011;57519;51.494;-2.626;2023-04-10T04:37:21;8.13;;;5.10;;
70153;SDS011;57519;51.494;-2.626;2023-04-10T04:39:46;9.48;;;5.30;;
70153;SDS011;57519;51.494;-2.626;2023-04-10T04:42:18;5.10;;;3.70;;
70153;SDS011;57519;51.494;-2.626;2023-04-10T04:44:43;5.55;;;4.25;;
70153;SDS011;57519;51.494;-2.626;2023-04-10T04:47:09;6.60;;;4.57;;
70153;SDS011;57519;51.494;-2.626;2023-04-10T04:49:38;7.95;;;4.90;;
70153;SDS011;57519;51.494;-2.626;2023-04-10T04:52:04;7.37;;;5.07;;
70153;SDS011;57519;51.494;-2.626;2023-04-10T04:54:29;11.43;;;5.37;;
70153;SDS011;57519;51.494;-2.626;2023-04-10T04:56:55;9.48;;;5.32;;
70153;SDS011;57519;51.494;-2.626;2023-04-10T04:59:21;7.45;;;4.57;;
70153;SDS011;57519;51.494;-2.626;2023-04-10T05:01:51;9.45;;;5.22;;
70153;SDS011;57519;51.494;-2.626;2023-04-10T05:04:17;7.03;;;4.50;;
70153;SDS011;57519;51.494;-2.626;2023-04-10T05:06:46;9.88;;;4.65;;
70153;SDS011;57519;51.494;-2.626;2023-04-10T05:09:11;9.50;;;5.10;;
70153;SDS011;57519;51.494;-2.626;2023-04-10T05:11:37;10.63;;;4.93;;
70153;SDS011;57519;51.494;-2.626;2023-04-10T05:14:04;7.18;;;5.25;;
70153;SDS011;57519;51.494;-2.626;2023-04-10T05:16:31;8.47;;;5.57;;
70153;SDS011;57519;51.494;-2.626;2023-04-10T05:18:57;7.97;;;5.40;;
70153;SDS011;57519;51.494;-2.626;2023-04-10T05:21:22;8.05;;;4.85;;
70153;SDS011;57519;51.494;-2.626;2023-04-10T05:23:49;7.80;;;5.63;;
70153;SDS011;57519;51.494;-2.626;2023-04-10T05:26:15;11.93;;;6.00;;
70153;SDS011;57519;51.494;-2.626;2023-04-10T05:28:40;14.27;;;6.73;;
70153;SDS011;57519;51.494;-2.626;2023-04-10T05:31:07;15.25;;;6.82;;
70153;SDS011;57519;51.494;-2.626;2023-04-10T05:33:33;8.38;;;5.03;;
70153;SDS011;57519;51.494;-2.626;2023-04-10T05:36:02;7.87;;;5.27;;
70153;SDS011;57519;51.494;-2.626;2023-04-10T05:38:27;10.63;;;5.78;;
70153;SDS011;57519;51.494;-2.626;2023-04-10T05:40:53;9.88;;;5.93;;
70153;SDS011;57519;51.494;-2.626;2023-04-10T05:43:19;9.83;;;5.87;;
70153;SDS011;57519;51.494;-2.626;2023-04-10T05:46:05;6.30;;;4.82;;
70153;SDS011;57519;51.494;-2.626;2023-04-10T05:48:34;7.03;;;4.80;;
70153;SDS011;57519;51.494;-2.626;2023-04-10T05:50:59;8.68;;;4.70;;
70153;SDS011;57519;51.494;-2.626;2023-04-10T05:53:28;7.27;;;4.87;;
70153;SDS011;57519;51.494;-2.626;2023-04-10T05:55:55;10.30;;;4.97;;
70153;SDS011;57519;51.494;-2.626;2023-04-10T05:58:26;8.70;;;4.82;;
70153;SDS011;57519;51.494;-2.626;2023-04-10T06:00:52;4.73;;;4.00;;
70153;SDS011;57519;51.494;-2.626;2023-04-10T06:03:19;10.15;;;5.20;;
70153;SDS011;57519;51.494;-2.626;2023-04-10T06:05:45;9.52;;;5.15;;
70153;SDS011;57519;51.494;-2.626;2023-04-10T06:08:12;5.20;;;3.93;;
70153;SDS011;57519;51.494;-2.626;2023-04-10T06:10:39;5.13;;;3.72;;
70153;SDS011;57519;51.494;-2.626;2023-04-10T06:13:04;7.83;;;4.13;;
70153;SDS011;57519;51.494;-2.626;2023-04-10T06:15:31;7.60;;;4.70;;
70153;SDS011;57519;51.494;-2.626;2023-04-10T06:18:04;5.88;;;4.45;;
70153;SDS011;57519;51.494;-2.626;2023-04-10T06:20:29;7.13;;;4.80;;
70153;SDS011;57519;51.494;-2.626;2023-04-10T06:22:55;5.73;;;4.80;;
70153;SDS011;57519;51.494;-2.626;2023-04-10T06:25:22;9.67;;;4.93;;
70153;SDS011;57519;51.494;-2.626;2023-04-10T06:27:49;10.15;;;4.93;;
70153;SDS011;57519;51.494;-2.626;2023-04-10T06:30:21;8.43;;;4.47;;
70153;SDS011;57519;51.494;-2.626;2023-04-10T06:32:48;10.90;;;5.22;;
70153;SDS011;57519;51.494;-2.626;2023-04-10T06:35:14;11.30;;;4.97;;
70153;SDS011;57519;51.494;-2.626;2023-04-10T06:37:39;9.95;;;5.00;;
70153;SDS011;57519;51.494;-2.626;2023-04-10T06:40:08;9.10;;;4.75;;
70153;SDS011;57519;51.494;-2.626;2023-04-10T06:42:37;6.53;;;4.43;;
70153;SDS011;57519;51.494;-2.626;2023-04-10T06:45:03;5.97;;;3.75;;
70153;SDS011;57519;51.494;-2.626;2023-04-10T06:47:30;5.00;;;4.13;;
70153;SDS011;57519;51.494;-2.626;2023-04-10T06:49:56;7.45;;;4.43;;
70153;SDS011;57519;51.494;-2.626;2023-04-10T06:52:27;5.90;;;4.40;;
70153;SDS011;57519;51.494;-2.626;2023-04-10T06:54:54;7.57;;;4.47;;
70153;SDS011;57519;51.494;-2.626;2023-04-10T06:57:19;10.90;;;5.13;;
70153;SDS011;57519;51.494;-2.626;2023-04-10T06:59:45;9.10;;;4.83;;
70153;SDS011;57519;51.494;-2.626;2023-04-10T07:02:11;7.90;;;4.78;;
70153;SDS011;57519;51.494;-2.626;2023-04-10T07:04:36;5.43;;;4.33;;
70153;SDS011;57519;51.494;-2.626;2023-04-10T07:07:02;4.80;;;3.83;;
70153;SDS011;57519;51.494;-2.626;2023-04-10T07:09:28;6.07;;;3.90;;
70153;SDS011;57519;51.494;-2.626;2023-04-10T07:11:55;10.57;;;5.10;;
70153;SDS011;57519;51.494;-2.626;2023-04-10T07:14:21;4.37;;;3.50;;
70153;SDS011;57519;51.494;-2.626;2023-04-10T07:16:47;5.15;;;3.47;;
70153;SDS011;57519;51.494;-2.626;2023-04-10T07:19:14;5.93;;;3.90;;
70153;SDS011;57519;51.494;-2.626;2023-04-10T07:21:39;6.55;;;4.00;;
70153;SDS011;57519;51.494;-2.626;2023-04-10T07:24:06;5.50;;;4.22;;
70153;SDS011;57519;51.494;-2.626;2023-04-10T07:26:32;10.20;;;4.47;;
70153;SDS011;57519;51.494;-2.626;2023-04-10T07:28:58;6.85;;;4.05;;
70153;SDS011;57519;51.494;-2.626;2023-04-10T07:31:24;6.03;;;4.17;;
70153;SDS011;57519;51.494;-2.626;2023-04-10T07:33:49;8.93;;;3.95;;
70153;SDS011;57519;51.494;-2.626;2023-04-10T07:36:16;6.23;;;4.03;;
70153;SDS011;57519;51.494;-2.626;2023-04-10T07:38:42;8.73;;;4.57;;
70153;SDS011;57519;51.494;-2.626;2023-04-10T07:41:08;8.73;;;4.03;;
70153;SDS011;57519;51.494;-2.626;2023-04-10T07:43:36;6.90;;;4.72;;
70153;SDS011;57519;51.494;-2.626;2023-04-10T07:46:01;8.57;;;4.40;;
70153;SDS011;57519;51.494;-2.626;2023-04-10T07:48:33;8.43;;;4.40;;
70153;SDS011;57519;51.494;-2.626;2023-04-10T07:50:59;8.50;;;4.10;;
70153;SDS011;57519;51.494;-2.626;2023-04-10T07:53:26;4.78;;;3.58;;
70153;SDS011;57519;51.494;-2.626;2023-04-10T07:55:54;9.63;;;4.68;;
70153;SDS011;57519;51.494;-2.626;2023-04-10T07:58:20;10.02;;;5.38;;
70153;SDS011;57519;51.494;-2.626;2023-04-10T08:00:45;6.03;;;4.27;;
70153;SDS011;57519;51.494;-2.626;2023-04-10T08:03:11;9.67;;;4.37;;
70153;SDS011;57519;51.494;-2.626;2023-04-10T08:05:38;5.70;;;4.20;;
70153;SDS011;57519;51.494;-2.626;2023-04-10T08:08:03;9.60;;;3.87;;
70153;SDS011;57519;51.494;-2.626;2023-04-10T08:10:36;7.43;;;4.60;;
70153;SDS011;57519;51.494;-2.626;2023-04-10T08:13:04;6.85;;;4.18;;
70153;SDS011;57519;51.494;-2.626;2023-04-10T08:15:30;7.13;;;4.20;;
70153;SDS011;57519;51.494;-2.626;2023-04-10T08:17:58;9.00;;;4.28;;
70153;SDS011;57519;51.494;-2.626;2023-04-10T08:20:24;9.65;;;4.65;;
70153;SDS011;57519;51.494;-2.626;2023-04-10T08:22:52;9.50;;;4.72;;
70153;SDS011;57519;51.494;-2.626;2023-04-10T08:25:19;9.70;;;4.37;;
70153;SDS011;57519;51.494;-2.626;2023-04-10T08:27:45;7.45;;;4.30;;
70153;SDS011;57519;51.494;-2.626;2023-04-10T08:30:11;10.93;;;5.90;;
70153;SDS011;57519;51.494;-2.626;2023-04-10T08:32:37;9.52;;;4.40;;
70153;SDS011;57519;51.494;-2.626;2023-04-10T08:35:02;8.10;;;3.93;;
70153;SDS011;57519;51.494;-2.626;2023-04-10T08:37:29;6.00;;;4.43;;
70153;SDS011;57519;51.494;-2.626;2023-04-10T08:39:55;11.07;;;4.53;;
70153;SDS011;57519;51.494;-2.626;2023-04-10T08:42:20;8.57;;;5.22;;
70153;SDS011;57519;51.494;-2.626;2023-04-10T08:44:50;13.97;;;5.30;;
70153;SDS011;57519;51.494;-2.626;2023-04-10T08:47:18;11.50;;;5.00;;
70153;SDS011;57519;51.494;-2.626;2023-04-10T08:49:46;15.38;;;5.85;;
70153;SDS011;57519;51.494;-2.626;2023-04-10T08:52:20;10.85;;;5.20;;
70153;SDS011;57519;51.494;-2.626;2023-04-10T08:54:49;12.68;;;5.30;;
70153;SDS011;57519;51.494;-2.626;2023-04-10T08:57:18;18.90;;;6.00;;
70153;SDS011;57519;51.494;-2.626;2023-04-10T08:59:46;9.68;;;4.55;;
70153;SDS011;57519;51.494;-2.626;2023-04-10T09:02:17;9.80;;;4.47;;
70153;SDS011;57519;51.494;-2.626;2023-04-10T09:04:47;11.45;;;5.53;;
70153;SDS011;57519;51.494;-2.626;2023-04-10T09:07:14;14.93;;;5.47;;
70153;SDS011;57519;51.494;-2.626;2023-04-10T09:09:41;10.67;;;5.00;;
70153;SDS011;57519;51.494;-2.626;2023-04-10T09:12:07;11.23;;;4.70;;
70153;SDS011;57519;51.494;-2.626;2023-04-10T09:14:34;15.10;;;4.93;;
70153;SDS011;57519;51.494;-2.626;2023-04-10T09:17:11;20.90;;;5.90;;
70153;SDS011;57519;51.494;-2.626;2023-04-10T09:19:41;10.75;;;5.57;;
70153;SDS011;57519;51.494;-2.626;2023-04-10T09:22:08;13.35;;;4.75;;
70153;SDS011;57519;51.494;-2.626;2023-04-10T09:24:38;10.63;;;4.47;;
70153;SDS011;57519;51.494;-2.626;2023-04-10T09:27:31;21.30;;;6.37;;
70153;SDS011;57519;51.494;-2.626;2023-04-10T09:29:59;22.88;;;5.55;;
70153;SDS011;57519;51.494;-2.626;2023-04-10T09:32:42;16.42;;;5.45;;
70153;SDS011;57519;51.494;-2.626;2023-04-10T09:35:09;13.35;;;4.45;;
70153;SDS011;57519;51.494;-2.626;2023-04-10T09:37:38;12.18;;;4.65;;
70153;SDS011;57519;51.494;-2.626;2023-04-10T09:40:19;11.27;;;4.90;;
70153;SDS011;57519;51.494;-2.626;2023-04-10T09:42:55;9.82;;;4.97;;
70153;SDS011;57519;51.494;-2.626;2023-04-10T09:45:20;11.65;;;5.57;;
70153;SDS011;57519;51.494;-2.626;2023-04-10T09:48:02;12.20;;;4.55;;
70153;SDS011;57519;51.494;-2.626;2023-04-10T09:50:35;9.27;;;3.90;;
70153;SDS011;57519;51.494;-2.626;2023-04-10T09:53:02;12.60;;;4.47;;
70153;SDS011;57519;51.494;-2.626;2023-04-10T09:55:27;10.45;;;4.28;;
70153;SDS011;57519;51.494;-2.626;2023-04-10T09:57:57;16.33;;;5.97;;
70153;SDS011;57519;51.494;-2.626;2023-04-10T10:00:24;14.20;;;4.80;;
70153;SDS011;57519;51.494;-2.626;2023-04-10T10:02:50;7.68;;;3.83;;
70153;SDS011;57519;51.494;-2.626;2023-04-10T10:05:23;11.32;;;4.05;;
70153;SDS011;57519;51.494;-2.626;2023-04-10T10:07:54;12.27;;;5.05;;
70153;SDS011;57519;51.494;-2.626;2023-04-10T10:10:22;10.95;;;4.07;;
70153;SDS011;57519;51.494;-2.626;2023-04-10T10:12:53;12.80;;;4.77;;
70153;SDS011;57519;51.494;-2.626;2023-04-10T10:15:30;12.27;;;5.13;;
70153;SDS011;57519;51.494;-2.626;2023-04-10T10:20:55;14.13;;;4.60;;
70153;SDS011;57519;51.494;-2.626;2023-04-10T10:23:22;10.57;;;4.82;;
70153;SDS011;57519;51.494;-2.626;2023-04-10T10:25:50;15.90;;;5.17;;
70153;SDS011;57519;51.494;-2.626;2023-04-10T10:28:19;10.35;;;5.07;;
70153;SDS011;57519;51.494;-2.626;2023-04-10T10:30:49;12.88;;;5.05;;
70153;SDS011;57519;51.494;-2.626;2023-04-10T10:33:16;16.17;;;5.38;;
70153;SDS011;57519;51.494;-2.626;2023-04-10T10:35:43;12.95;;;5.40;;
70153;SDS011;57519;51.494;-2.626;2023-04-10T10:38:09;16.03;;;4.77;;
70153;SDS011;57519;51.494;-2.626;2023-04-10T10:46:56;12.98;;;5.28;;
70153;SDS011;57519;51.494;-2.626;2023-04-10T10:58:20;17.23;;;5.47;;
70153;SDS011;57519;51.494;-2.626;2023-04-10T11:01:21;16.95;;;5.68;;
70153;SDS011;57519;51.494;-2.626;2023-04-10T11:03:52;14.75;;;4.38;;
70153;SDS011;57519;51.494;-2.626;2023-04-10T11:06:20;23.13;;;5.70;;
70153;SDS011;57519;51.494;-2.626;2023-04-10T11:09:08;22.25;;;6.18;;
70153;SDS011;57519;51.494;-2.626;2023-04-10T11:12:18;12.55;;;4.00;;
70153;SDS011;57519;51.494;-2.626;2023-04-10T11:15:01;19.98;;;6.15;;
70153;SDS011;57519;51.494;-2.626;2023-04-10T11:17:48;12.70;;;5.03;;
70153;SDS011;57519;51.494;-2.626;2023-04-10T11:20:18;17.57;;;4.87;;
70153;SDS011;57519;51.494;-2.626;2023-04-10T11:25:51;19.35;;;5.85;;
70153;SDS011;57519;51.494;-2.626;2023-04-10T11:33:45;18.40;;;5.57;;
70153;SDS011;57519;51.494;-2.626;2023-04-10T11:36:24;18.92;;;5.85;;
70153;SDS011;57519;51.494;-2.626;2023-04-10T11:39:00;11.60;;;4.97;;
70153;SDS011;57519;51.494;-2.626;2023-04-10T11:41:30;17.52;;;4.65;;
70153;SDS011;57519;51.494;-2.626;2023-04-10T11:44:00;12.30;;;4.90;;
70153;SDS011;57519;51.494;-2.626;2023-04-10T11:46:27;14.87;;;5.03;;
70153;SDS011;57519;51.494;-2.626;2023-04-10T11:49:03;11.10;;;4.63;;
70153;SDS011;57519;51.494;-2.626;2023-04-10T11:51:35;14.05;;;4.72;;
70153;SDS011;57519;51.494;-2.626;2023-04-10T11:56:31;12.73;;;4.85;;
70153;SDS011;57519;51.494;-2.626;2023-04-10T11:59:00;14.07;;;4.87;;
70153;SDS011;57519;51.494;-2.626;2023-04-10T12:01:28;12.38;;;4.63;;
70153;SDS011;57519;51.494;-2.626;2023-04-10T12:03:53;14.25;;;4.63;;
70153;SDS011;57519;51.494;-2.626;2023-04-10T12:06:20;12.03;;;4.67;;
70153;SDS011;57519;51.494;-2.626;2023-04-10T12:08:47;19.08;;;5.25;;
70153;SDS011;57519;51.494;-2.626;2023-04-10T12:11:20;16.00;;;5.50;;
70153;SDS011;57519;51.494;-2.626;2023-04-10T12:13:53;10.30;;;4.45;;
70153;SDS011;57519;51.494;-2.626;2023-04-10T12:16:20;10.67;;;3.60;;
70153;SDS011;57519;51.494;-2.626;2023-04-10T12:18:48;15.25;;;4.72;;
70153;SDS011;57519;51.494;-2.626;2023-04-10T12:21:17;15.82;;;4.95;;
70153;SDS011;57519;51.494;-2.626;2023-04-10T12:23:44;9.90;;;4.30;;
70153;SDS011;57519;51.494;-2.626;2023-04-10T12:26:21;8.73;;;4.00;;
70153;SDS011;57519;51.494;-2.626;2023-04-10T12:28:51;10.18;;;3.75;;
70153;SDS011;57519;51.494;-2.626;2023-04-10T12:34:51;17.53;;;4.93;;
70153;SDS011;57519;51.494;-2.626;2023-04-10T12:40:18;15.52;;;4.30;;
70153;SDS011;57519;51.494;-2.626;2023-04-10T12:42:44;11.35;;;4.55;;
70153;SDS011;57519;51.494;-2.626;2023-04-10T12:45:12;14.38;;;4.53;;
70153;SDS011;57519;51.494;-2.626;2023-04-10T12:47:48;12.73;;;4.30;;
70153;SDS011;57519;51.494;-2.626;2023-04-10T12:57:07;9.85;;;4.05;;
70153;SDS011;57519;51.494;-2.626;2023-04-10T12:59:33;12.05;;;4.53;;
70153;SDS011;57519;51.494;-2.626;2023-04-10T13:01:58;15.50;;;5.53;;
70153;SDS011;57519;51.494;-2.626;2023-04-10T13:04:24;14.57;;;5.05;;
70153;SDS011;57519;51.494;-2.626;2023-04-10T13:06:51;9.50;;;3.77;;
70153;SDS011;57519;51.494;-2.626;2023-04-10T13:09:17;16.35;;;4.25;;
70153;SDS011;57519;51.494;-2.626;2023-04-10T13:11:44;14.02;;;5.43;;
70153;SDS011;57519;51.494;-2.626;2023-04-10T13:14:09;12.03;;;4.67;;
70153;SDS011;57519;51.494;-2.626;2023-04-10T13:16:35;11.13;;;4.30;;
70153;SDS011;57519;51.494;-2.626;2023-04-10T13:19:00;9.13;;;4.40;;
70153;SDS011;57519;51.494;-2.626;2023-04-10T13:21:26;11.60;;;4.30;;
70153;SDS011;57519;51.494;-2.626;2023-04-10T13:23:53;15.10;;;5.20;;
70153;SDS011;57519;51.494;-2.626;2023-04-10T13:26:28;10.38;;;3.55;;
70153;SDS011;57519;51.494;-2.626;2023-04-10T13:28:53;11.98;;;4.55;;
70153;SDS011;57519;51.494;-2.626;2023-04-10T13:31:19;17.50;;;5.03;;
70153;SDS011;57519;51.494;-2.626;2023-04-10T13:33:47;17.37;;;5.37;;
70153;SDS011;57519;51.494;-2.626;2023-04-10T13:36:16;12.25;;;4.45;;
70153;SDS011;57519;51.494;-2.626;2023-04-10T13:38:46;9.80;;;3.72;;
70153;SDS011;57519;51.494;-2.626;2023-04-10T13:41:14;11.90;;;4.65;;
70153;SDS011;57519;51.494;-2.626;2023-04-10T13:43:41;14.77;;;4.78;;
70153;SDS011;57519;51.494;-2.626;2023-04-10T13:52:52;13.77;;;4.43;;
70153;SDS011;57519;51.494;-2.626;2023-04-10T13:55:17;12.53;;;4.43;;
70153;SDS011;57519;51.494;-2.626;2023-04-10T13:57:42;16.90;;;5.23;;
70153;SDS011;57519;51.494;-2.626;2023-04-10T14:00:08;17.88;;;5.10;;
70153;SDS011;57519;51.494;-2.626;2023-04-10T14:02:34;13.07;;;4.50;;
70153;SDS011;57519;51.494;-2.626;2023-04-10T14:05:00;15.02;;;4.35;;
70153;SDS011;57519;51.494;-2.626;2023-04-10T14:07:28;15.07;;;4.28;;
70153;SDS011;57519;51.494;-2.626;2023-04-10T14:09:53;20.87;;;5.30;;
70153;SDS011;57519;51.494;-2.626;2023-04-10T14:12:21;14.65;;;4.03;;
70153;SDS011;57519;51.494;-2.626;2023-04-10T14:14:47;11.67;;;4.40;;
70153;SDS011;57519;51.494;-2.626;2023-04-10T14:17:12;11.60;;;3.97;;
70153;SDS011;57519;51.494;-2.626;2023-04-10T14:19:38;13.87;;;5.03;;
70153;SDS011;57519;51.494;-2.626;2023-04-10T14:22:03;12.63;;;4.60;;
70153;SDS011;57519;51.494;-2.626;2023-04-10T14:24:29;12.57;;;3.72;;
70153;SDS011;57519;51.494;-2.626;2023-04-10T14:40:47;9.13;;;3.92;;
70153;SDS011;57519;51.494;-2.626;2023-04-10T14:43:14;15.30;;;5.55;;
70153;SDS011;57519;51.494;-2.626;2023-04-10T14:45:39;19.02;;;4.97;;
70153;SDS011;57519;51.494;-2.626;2023-04-10T14:48:05;17.20;;;5.50;;
70153;SDS011;57519;51.494;-2.626;2023-04-10T14:50:33;14.37;;;5.07;;
70153;SDS011;57519;51.494;-2.626;2023-04-10T14:52:59;22.60;;;5.90;;
70153;SDS011;57519;51.494;-2.626;2023-04-10T14:55:25;21.20;;;5.67;;
70153;SDS011;57519;51.494;-2.626;2023-04-10T14:57:52;16.27;;;5.35;;
70153;SDS011;57519;51.494;-2.626;2023-04-10T15:00:17;16.10;;;4.30;;
70153;SDS011;57519;51.494;-2.626;2023-04-10T15:02:43;16.08;;;5.95;;
70153;SDS011;57519;51.494;-2.626;2023-04-10T15:05:09;19.07;;;6.70;;
70153;SDS011;57519;51.494;-2.626;2023-04-10T15:07:34;12.10;;;5.18;;
70153;SDS011;57519;51.494;-2.626;2023-04-10T15:10:03;15.33;;;5.53;;
70153;SDS011;57519;51.494;-2.626;2023-04-10T15:16:34;12.65;;;5.05;;
70153;SDS011;57519;51.494;-2.626;2023-04-10T15:19:00;16.20;;;5.30;;
70153;SDS011;57519;51.494;-2.626;2023-04-10T15:21:25;19.93;;;6.10;;
70153;SDS011;57519;51.494;-2.626;2023-04-10T15:23:51;15.98;;;4.57;;
70153;SDS011;57519;51.494;-2.626;2023-04-10T15:26:16;15.13;;;5.30;;
70153;SDS011;57519;51.494;-2.626;2023-04-10T15:28:43;14.73;;;5.40;;
70153;SDS011;57519;51.494;-2.626;2023-04-10T15:31:09;26.23;;;6.03;;
70153;SDS011;57519;51.494;-2.626;2023-04-10T15:33:35;22.38;;;5.90;;
70153;SDS011;57519;51.494;-2.626;2023-04-10T15:36:02;22.65;;;6.38;;
70153;SDS011;57519;51.494;-2.626;2023-04-10T15:38:28;15.60;;;5.50;;
70153;SDS011;57519;51.494;-2.626;2023-04-10T15:40:53;12.97;;;4.73;;
70153;SDS011;57519;51.494;-2.626;2023-04-10T15:43:19;14.70;;;5.13;;
70153;SDS011;57519;51.494;-2.626;2023-04-10T15:45:45;16.13;;;5.27;;
70153;SDS011;57519;51.494;-2.626;2023-04-10T15:48:10;15.00;;;5.37;;
70153;SDS011;57519;51.494;-2.626;2023-04-10T15:50:36;15.63;;;4.97;;